Pagina principale
METAR-TAF:

METAR-TAF

Aeroporti :

Fourchambault

Nevers, Francia

latitudine: 47-00N, longitudine: 003-06E, altezza: 180 m

Osservazione

Il bollettino è stato emesso 47 minuti fa, alle 09:00 UTC
Vento 5 kt da direzioni variabili
Temperature 15°C
Umidità 55%
Pressione 1011 hPa
Visibilità 10 km o più
Poco nuvoloso ad un'altezza di 4700 ft

METAR: LFQG 070900Z AUTO VRB05KT 9999 FEW047 15/06 Q1011

Ora: 11:47 (09:47 UTC)


TAF: mancante

Osservazioni e previsioni meteorologiche di più di 4000 aeroporti (messaggi METAR e TAF).

Le stazioni disponibili sono rappresentate dai dischi gialli e rossi sulla carta.

Puntare il mouse per vedere il nome della stazione.

Clicca sopra per visualizzare le osservazioni e previsioni meteorologiche.

Per cambiare la mappa : fare clic sui pulsanti verdi con una croce nera per ingrandire, il pulsante verde con un trattino per diminuire, o sulla freccia verde per le mappe adiacenti.


METAR-TAF: